Mound City, Kansas
Current Conditions -  °F | °C
As of 10:55 PM on Monday 22 Dec 2014 (Local Time) from KPTS Reporting Station
Clear Clear  
Wind Chill: 38°   Ceiling: Unl
Heat Index: 42°   Visibility: 10mi
Dew Point: 41°   Wind: 7mph
Humidity: 96%   Direction: 270°W
Pressure: 29.62"   Gusts: NA
Location:  38.14°N, 94.81°W
Report Text: KPTS 230455Z AUTO 27006KT 10SM CLR 06/05 A2962 RMK AO2 T00560050
Loading
Personal Weather Stations






























Interactive Weather Map New forecast layout! Learn more

10-Day Weather Forecast

Advertisements
Track Severe Weather on mobile